Terminal Aerodrome Forecast
Issued by NWS Greer, SC

Home | Current Version | Previous Version | Text Only | Print | Product List | Glossary On
Versions: 1 2 3 4 5 6 7 8 9 10 11 12 13 14 15 16 17 18 19 20 21 22
000
FTUS42 KGSP 241121
TAFAVL
TAF
KAVL 241121Z 2412/2512 36007KT 4SM -SHRA BR OVC015
      TEMPO 2412/2416 2SM +SHRA BR SCT015 OVC025
     FM241600 36009KT 4SM -SHRA BR OVC007
     FM242000 35006KT 4SM -SHRA BR OVC015
     FM250000 34005KT 4SM -SHRA BR OVC020
     FM250300 34007KT 4SM BR OVC015=

USA.gov is the U.S. government's official web portal to all federal, state and local government web resources and services.